Time;durP1;ratioP1;P1;durP2;ratioP2;P2;SDS_P1;SDS_P2;PMS_P1;PMS_P2;Temp;Humidity;BMP_temperature;BMP_pressure;BME280_temperature;BME280_humidity;BME280_pressure;Samples;Min_cycle;Max_cycle;Signal;HPM_P1;HPM_P2
2023/02/12 00:02:06;;;;;;;;;;;;;;;5.23;100.00;100139.28;5003099;28;20434;-61
2023/02/12 00:04:32;;;;;;;;;;;;;;;5.23;100.00;100144.34;5001347;28;20571;-61
2023/02/12 00:06:58;;;;;;;;;;;;;;;5.33;100.00;100145.47;5003036;28;19929;-61
2023/02/12 00:09:23;;;;;;;;;;;;;;;5.40;100.00;100132.94;5002992;28;19939;-61
2023/02/12 00:11:49;;;;;;;;;;;;;;;5.37;100.00;100144.72;5004602;28;20407;-61
2023/02/12 00:14:14;;;;;;;;;;;;;;;5.30;100.00;100142.84;5003026;28;20337;-65
2023/02/12 00:16:39;;;;;;;;;;;;;;;5.26;100.00;100138.50;5003601;28;19929;-61
2023/02/12 00:19:05;;;;;;;;;;;;;;;5.22;100.00;100145.16;5003789;28;19929;-62
2023/02/12 00:21:30;;;;;;;;;;;;;;;5.28;100.00;100145.34;5002615;28;19929;-62
2023/02/12 00:23:56;;;;;;;;;;;;;;;5.24;100.00;100145.22;5000500;28;20376;-61
2023/02/12 00:26:22;;;;;;;;;;;;;;;5.26;100.00;100146.13;5001295;28;19995;-61
2023/02/12 00:28:49;;;;;;;;;;;;;;;5.23;100.00;100158.75;4999298;28;20411;-61
2023/02/12 00:31:20;;;;;;;;;;;;;;;5.23;100.00;100154.53;4999887;28;20400;-61
2023/02/12 00:33:49;;;;;;;;;;;;;;;5.31;100.00;100175.94;4998710;28;20474;-60
2023/02/12 00:36:20;;;;;;;;;;;;;;;5.34;100.00;100160.78;4997894;28;19925;-60
2023/02/12 00:38:45;;;;;;;;;;;;;;;5.30;100.00;100158.97;5030967;28;19934;-61
2023/02/12 00:41:11;;;;;;;;;;;;;;;5.30;100.00;100168.28;4997712;28;19926;-61
2023/02/12 00:43:37;;;;;;;;;;;;;;;5.32;100.00;100166.63;4999451;28;20389;-61
2023/02/12 00:46:03;;;;;;;;;;;;;;;5.33;100.00;100165.81;4998749;28;20488;-60
2023/02/12 00:48:29;;;;;;;;;;;;;;;5.36;100.00;100170.97;4998266;28;19930;-60
2023/02/12 00:50:55;;;;;;;;;;;;;;;5.39;100.00;100155.78;5013542;28;19992;-62
2023/02/12 00:53:20;;;;;;;;;;;;;;;5.41;100.00;100155.00;4999234;28;20042;-60
2023/02/12 00:55:45;;;;;;;;;;;;;;;5.39;100.00;100158.31;5013639;28;19979;-60
2023/02/12 00:58:11;;;;;;;;;;;;;;;5.37;100.00;100160.84;4999528;28;20495;-61
2023/02/12 01:00:36;;;;;;;;;;;;;;;5.33;100.00;100153.97;5030916;28;19925;-60
2023/02/12 01:03:03;;;;;;;;;;;;;;;5.27;100.00;100163.94;4998514;28;19930;-60
2023/02/12 01:05:31;;;;;;;;;;;;;;;5.25;100.00;100160.53;4999383;28;20402;-60
2023/02/12 01:07:57;;;;;;;;;;;;;;;5.27;100.00;100151.25;4997880;28;19929;-61
2023/02/12 01:10:23;;;;;;;;;;;;;;;5.23;100.00;100148.56;5000019;28;20390;-60
2023/02/12 01:12:48;;;;;;;;;;;;;;;5.24;100.00;100158.78;4998276;28;19973;-61
2023/02/12 01:15:15;;;;;;;;;;;;;;;5.27;100.00;100147.84;4997183;28;19929;-60
2023/02/12 01:17:40;;;;;;;;;;;;;;;5.25;100.00;100152.03;4994735;28;19933;-61
2023/02/12 01:20:06;;;;;;;;;;;;;;;5.24;100.00;100165.56;4995418;28;20308;-61
2023/02/12 01:22:34;;;;;;;;;;;;;;;5.26;100.00;100163.94;4998065;28;19999;-60
2023/02/12 01:25:01;;;;;;;;;;;;;;;5.28;100.00;100169.91;5013731;28;19925;-60
2023/02/12 01:27:26;;;;;;;;;;;;;;;5.23;100.00;100174.88;4997312;28;20300;-62
2023/02/12 01:29:54;;;;;;;;;;;;;;;5.22;100.00;100193.47;5000185;28;19929;-61
2023/02/12 01:32:19;;;;;;;;;;;;;;;5.28;100.00;100191.09;4997527;28;19929;-61
2023/02/12 01:34:45;;;;;;;;;;;;;;;5.21;100.00;100196.84;4997792;28;19961;-60
2023/02/12 01:37:11;;;;;;;;;;;;;;;5.26;100.00;100194.44;4997392;28;20485;-61
2023/02/12 01:39:36;;;;;;;;;;;;;;;5.33;100.00;100192.09;5029133;28;19933;-61
2023/02/12 01:42:02;;;;;;;;;;;;;;;5.27;100.00;100191.06;4997792;28;19929;-60
2023/02/12 01:44:29;;;;;;;;;;;;;;;5.23;100.00;100201.97;5008576;28;20261;-62
2023/02/12 01:46:55;;;;;;;;;;;;;;;5.20;100.00;100207.84;5028704;28;20312;-62
2023/02/12 01:49:20;;;;;;;;;;;;;;;5.28;100.00;100219.06;4998349;28;19933;-60
2023/02/12 01:51:47;;;;;;;;;;;;;;;5.34;100.00;100223.47;4996220;28;19968;-61
2023/02/12 01:54:14;;;;;;;;;;;;;;;5.38;100.00;100233.78;5028671;28;20482;-60
2023/02/12 01:56:40;;;;;;;;;;;;;;;5.35;100.00;100242.97;4984107;28;19925;-60
2023/02/12 01:59:06;;;;;;;;;;;;;;;5.34;100.00;100236.19;5028785;28;19929;-60
2023/02/12 02:01:32;;;;;;;;;;;;;;;5.40;100.00;100231.25;4998410;28;19925;-61
2023/02/12 02:04:01;;;;;;;;;;;;;;;5.46;100.00;100222.13;5012355;28;20007;-61
2023/02/12 02:06:40;;;;;;;;;;;;;;;5.41;100.00;100228.75;4996839;28;19926;-61
2023/02/12 02:09:06;;;;;;;;;;;;;;;5.38;100.00;100240.53;4998682;28;20345;-60
2023/02/12 02:14:34;;;;;;;;;;;;;;;5.37;100.00;100224.41;5029939;28;19979;-61
2023/02/12 02:17:25;;;;;;;;;;;;;;;5.37;100.00;100221.88;4998872;28;19929;-61
2023/02/12 02:20:07;;;;;;;;;;;;;;;5.40;100.00;100229.56;4995455;28;19938;-61
2023/02/12 02:22:32;;;;;;;;;;;;;;;5.39;100.00;100234.63;4979697;28;20482;-59
2023/02/12 02:24:57;;;;;;;;;;;;;;;5.36;100.00;100232.00;4978637;28;19925;-59
2023/02/12 02:27:32;;;;;;;;;;;;;;;5.35;100.00;100228.59;4979395;28;19929;-59
2023/02/12 02:30:10;;;;;;;;;;;;;;;5.34;100.00;100224.34;4959249;28;19926;-61
2023/02/12 02:32:39;;;;;;;;;;;;;;;5.34;100.00;100204.00;4977148;28;19932;-61
2023/02/12 02:35:08;;;;;;;;;;;;;;;5.29;100.00;100218.25;4978776;28;19925;-61
2023/02/12 02:37:38;;;;;;;;;;;;;;;5.31;100.00;100220.81;4978458;28;19925;-60
2023/02/12 02:40:22;;;;;;;;;;;;;;;5.24;100.00;100234.19;4958364;28;19933;-61
2023/02/12 02:42:53;;;;;;;;;;;;;;;5.21;100.00;100227.38;4979233;28;20476;-61
2023/02/12 02:45:23;;;;;;;;;;;;;;;5.16;100.00;100225.50;4979706;28;19925;-60
2023/02/12 02:47:59;;;;;;;;;;;;;;;5.20;100.00;100225.63;4978177;28;19929;-62
2023/02/12 02:50:26;;;;;;;;;;;;;;;5.15;100.00;100223.78;4979022;28;19985;-61
2023/02/12 02:52:58;;;;;;;;;;;;;;;5.11;100.00;100233.00;4977541;28;19925;-62
2023/02/12 02:55:25;;;;;;;;;;;;;;;5.10;100.00;100228.72;4979699;28;19956;-61
2023/02/12 02:57:51;;;;;;;;;;;;;;;5.14;100.00;100238.16;4995532;28;20024;-61
2023/02/12 03:00:19;;;;;;;;;;;;;;;5.18;100.00;100239.13;4996842;28;19995;-62
2023/02/12 03:02:53;;;;;;;;;;;;;;;5.19;100.00;100246.78;5026968;28;20448;-60
2023/02/12 03:05:23;;;;;;;;;;;;;;;5.09;100.00;100252.44;4996822;28;19926;-61
2023/02/12 03:07:51;;;;;;;;;;;;;;;5.11;100.00;100262.63;4995688;28;20024;-62
2023/02/12 03:10:19;;;;;;;;;;;;;;;5.09;100.00;100265.16;5010431;28;19944;-61
2023/02/12 03:12:53;;;;;;;;;;;;;;;5.06;100.00;100263.38;4995709;28;20487;-63
2023/02/12 03:15:23;;;;;;;;;;;;;;;5.02;100.00;100269.19;4997399;28;20257;-61
2023/02/12 03:17:48;;;;;;;;;;;;;;;4.97;100.00;100269.84;4995922;28;19971;-61
2023/02/12 03:20:19;;;;;;;;;;;;;;;4.93;100.00;100273.13;4997839;28;19929;-61
2023/02/12 03:22:50;;;;;;;;;;;;;;;4.90;100.00;100267.94;4998284;28;20389;-62
2023/02/12 03:25:19;;;;;;;;;;;;;;;4.83;100.00;100268.59;4993513;28;19948;-63
2023/02/12 03:27:47;;;;;;;;;;;;;;;4.69;100.00;100277.47;4994269;28;20185;-62
2023/02/12 03:30:14;;;;;;;;;;;;;;;4.66;100.00;100290.09;4995026;28;20011;-62
2023/02/12 03:32:52;;;;;;;;;;;;;;;4.58;100.00;100290.69;4995368;28;20012;-62
2023/02/12 03:35:24;;;;;;;;;;;;;;;4.53;100.00;100291.38;5000010;28;20401;-63
2023/02/12 03:38:00;;;;;;;;;;;;;;;4.49;100.00;100305.66;4998430;28;19947;-62
2023/02/12 03:40:28;;;;;;;;;;;;;;;4.50;100.00;100299.75;4998906;28;19925;-62
2023/02/12 03:43:13;;;;;;;;;;;;;;;4.48;100.00;100292.91;4999219;28;20499;-61
2023/02/12 03:46:04;;;;;;;;;;;;;;;4.45;100.00;100297.88;4999001;28;19925;-64
2023/02/12 03:48:34;;;;;;;;;;;;;;;4.44;100.00;100303.78;4995632;28;19925;-61
2023/02/12 03:51:19;;;;;;;;;;;;;;;4.39;100.00;100297.69;4996189;28;20044;-63
2023/02/12 03:53:46;;;;;;;;;;;;;;;4.38;100.00;100304.44;4997511;28;19987;-61
2023/02/12 03:56:14;;;;;;;;;;;;;;;4.37;100.00;100304.41;4998637;28;20008;-61
2023/02/12 03:58:41;;;;;;;;;;;;;;;4.32;100.00;100298.31;5029280;28;20577;-61
2023/02/12 04:01:07;;;;;;;;;;;;;;;4.39;100.00;100308.69;5000109;28;19921;-62
2023/02/12 04:03:33;;;;;;;;;;;;;;;4.35;100.00;100306.88;5000376;28;19962;-62
2023/02/12 04:05:59;;;;;;;;;;;;;;;4.32;100.00;100311.88;5000563;28;19921;-61
2023/02/12 04:08:24;;;;;;;;;;;;;;;4.29;100.00;100311.75;5029554;28;20281;-61
2023/02/12 04:10:53;;;;;;;;;;;;;;;4.25;100.00;100311.59;4999034;28;19929;-61
2023/02/12 04:13:37;;;;;;;;;;;;;;;4.27;100.00;100318.47;5001958;28;20452;-62
2023/02/12 04:16:18;;;;;;;;;;;;;;;4.24;100.00;100318.38;5000821;28;20519;-63
2023/02/12 04:18:50;;;;;;;;;;;;;;;4.19;100.00;100327.50;4999760;28;19929;-62
2023/02/12 04:21:35;;;;;;;;;;;;;;;4.21;100.00;100346.16;5031251;28;19929;-63
2023/02/12 04:24:03;;;;;;;;;;;;;;;4.22;100.00;100325.06;4997679;28;20017;-62
2023/02/12 04:27:00;;;;;;;;;;;;;;;4.24;100.00;100336.13;4999202;28;19933;-62
2023/02/12 04:29:31;;;;;;;;;;;;;;;4.25;100.00;100336.97;4995288;28;19991;-66
2023/02/12 04:32:05;;;;;;;;;;;;;;;4.27;100.00;100331.16;5002717;28;20308;-62
2023/02/12 04:34:31;;;;;;;;;;;;;;;4.26;100.00;100331.09;5017549;28;20011;-61
2023/02/12 04:37:03;;;;;;;;;;;;;;;4.24;100.00;100337.81;5003902;28;20020;-61
2023/02/12 04:39:30;;;;;;;;;;;;;;;4.26;100.00;100337.03;5001537;28;19979;-62
2023/02/12 04:41:59;;;;;;;;;;;;;;;4.22;100.00;100350.44;5002947;28;19933;-63
2023/02/12 04:44:26;;;;;;;;;;;;;;;4.19;100.00;100352.00;5003800;28;20052;-65
2023/02/12 04:46:51;;;;;;;;;;;;;;;4.19;100.00;100365.56;5004202;28;19933;-62
2023/02/12 04:49:18;;;;;;;;;;;;;;;4.14;100.00;100367.06;5005863;28;19925;-61
2023/02/12 04:51:45;;;;;;;;;;;;;;;4.11;100.00;100374.59;5005797;28;19940;-62
2023/02/12 04:54:10;;;;;;;;;;;;;;;4.10;100.00;100370.31;5005508;28;19936;-62
2023/02/12 04:56:36;;;;;;;;;;;;;;;4.13;100.00;100378.03;5004566;28;19925;-62
2023/02/12 04:59:02;;;;;;;;;;;;;;;4.12;100.00;100383.91;5003281;28;19929;-61
2023/02/12 05:01:28;;;;;;;;;;;;;;;4.17;100.00;100389.16;4999757;28;19973;-62
2023/02/12 05:03:53;;;;;;;;;;;;;;;4.18;100.00;100389.22;4998743;28;19934;-62
2023/02/12 05:06:19;;;;;;;;;;;;;;;4.18;100.00;100398.50;4999194;28;20500;-62
2023/02/12 05:08:44;;;;;;;;;;;;;;;4.21;100.00;100399.47;5000709;28;19926;-63
2023/02/12 05:11:10;;;;;;;;;;;;;;;4.19;100.00;100410.38;4999135;28;20448;-61
2023/02/12 05:13:36;;;;;;;;;;;;;;;4.23;100.00;100407.16;4999331;28;20007;-61
2023/02/12 05:16:05;;;;;;;;;;;;;;;4.27;100.00;100407.31;5002157;28;20357;-61
2023/02/12 05:18:31;;;;;;;;;;;;;;;4.25;100.00;100416.53;4999930;28;20368;-62
2023/02/12 05:20:57;;;;;;;;;;;;;;;4.29;100.00;100409.88;5031449;28;19925;-62
2023/02/12 05:23:25;;;;;;;;;;;;;;;4.33;100.00;100419.34;4999814;28;19925;-62
2023/02/12 05:25:50;;;;;;;;;;;;;;;4.29;100.00;100423.44;4998674;28;19933;-61
2023/02/12 05:28:16;;;;;;;;;;;;;;;4.33;100.00;100426.97;4999793;28;20304;-61
2023/02/12 05:30:41;;;;;;;;;;;;;;;4.34;100.00;100421.06;4998628;28;20032;-61
2023/02/12 05:33:06;;;;;;;;;;;;;;;4.38;100.00;100423.75;4999331;28;19933;-62
2023/02/12 05:35:33;;;;;;;;;;;;;;;4.38;100.00;100423.75;5000724;28;19933;-61
2023/02/12 05:37:58;;;;;;;;;;;;;;;4.39;100.00;100422.97;4998720;28;19932;-61
2023/02/12 05:40:24;;;;;;;;;;;;;;;4.40;100.00;100434.84;5001197;28;19929;-61
2023/02/12 05:42:52;;;;;;;;;;;;;;;4.42;100.00;100439.97;4997996;28;20020;-60
2023/02/12 05:45:18;;;;;;;;;;;;;;;4.46;100.00;100435.03;4999467;28;20463;-62
2023/02/12 05:47:43;;;;;;;;;;;;;;;4.45;100.00;100437.53;4998632;28;19933;-60
2023/02/12 05:50:09;;;;;;;;;;;;;;;4.45;100.00;100443.50;4998726;28;19976;-61
2023/02/12 05:52:34;;;;;;;;;;;;;;;4.49;100.00;100442.78;4998490;28;20326;-61
2023/02/12 05:55:00;;;;;;;;;;;;;;;4.45;100.00;100455.31;4998710;28;19930;-61
2023/02/12 05:57:25;;;;;;;;;;;;;;;4.52;100.00;100454.72;4999611;28;19929;-63
2023/02/12 05:59:51;;;;;;;;;;;;;;;4.51;100.00;100447.91;4998637;28;20208;-62
2023/02/12 06:02:16;;;;;;;;;;;;;;;4.47;100.00;100451.16;4996861;28;20422;-61
2023/02/12 06:04:41;;;;;;;;;;;;;;;4.49;100.00;100455.47;4999838;28;19929;-63
2023/02/12 06:07:07;;;;;;;;;;;;;;;4.50;100.00;100458.84;4997749;28;19949;-62
2023/02/12 06:09:33;;;;;;;;;;;;;;;4.45;100.00;100460.41;4997731;28;19932;-63
2023/02/12 06:11:59;;;;;;;;;;;;;;;4.46;100.00;100462.97;4997865;28;19922;-62
2023/02/12 06:14:24;;;;;;;;;;;;;;;4.48;100.00;100458.81;4996421;28;20491;-61
2023/02/12 06:16:50;;;;;;;;;;;;;;;4.50;100.00;100466.47;4996381;28;20300;-63
2023/02/12 06:19:15;;;;;;;;;;;;;;;4.46;100.00;100477.34;4996526;28;19984;-63
2023/02/12 06:21:41;;;;;;;;;;;;;;;4.50;100.00;100485.13;4995400;28;20007;-60
2023/02/12 06:24:06;;;;;;;;;;;;;;;4.51;100.00;100483.44;4998061;28;20007;-61
2023/02/12 06:26:32;;;;;;;;;;;;;;;4.53;100.00;100472.56;4996470;28;19929;-62
2023/02/12 06:28:58;;;;;;;;;;;;;;;4.54;100.00;100486.13;4995150;28;19929;-61
2023/02/12 06:31:28;;;;;;;;;;;;;;;4.54;100.00;100492.03;4999494;28;20009;-61
2023/02/12 06:33:55;;;;;;;;;;;;;;;4.52;100.00;100500.41;4997167;28;19929;-62
2023/02/12 06:36:21;;;;;;;;;;;;;;;4.53;100.00;100490.34;4998141;28;19944;-62
2023/02/12 06:38:46;;;;;;;;;;;;;;;4.58;100.00;100483.72;4996306;28;20028;-62
2023/02/12 06:41:15;;;;;;;;;;;;;;;4.64;100.00;100477.97;4998174;28;19933;-61
2023/02/12 06:43:41;;;;;;;;;;;;;;;4.63;100.00;100486.41;4997305;28;20510;-63
2023/02/12 06:46:07;;;;;;;;;;;;;;;4.62;100.00;100489.78;4996166;28;19925;-61
2023/02/12 06:48:32;;;;;;;;;;;;;;;4.73;100.00;100493.53;4995832;28;19926;-61
2023/02/12 06:51:10;;;;;;;;;;;;;;;4.73;100.00;100492.69;4996880;28;20373;-59
2023/02/12 06:53:35;;;;;;;;;;;;;;;4.80;100.00;100495.47;4996547;28;19929;-63
2023/02/12 06:56:02;;;;;;;;;;;;;;;4.80;100.00;100500.56;4996839;28;19969;-61
2023/02/12 06:58:27;;;;;;;;;;;;;;;4.80;100.00;100512.38;4996503;28;19925;-64
2023/02/12 07:00:56;;;;;;;;;;;;;;;4.82;100.00;100514.19;4997538;28;19930;-60
2023/02/12 07:03:21;;;;;;;;;;;;;;;4.84;100.00;100506.59;4995677;28;19930;-60
2023/02/12 07:05:50;;;;;;;;;;;;;;;4.84;100.00;100512.53;4997184;28;19947;-59
2023/02/12 07:08:16;;;;;;;;;;;;;;;4.82;100.00;100516.72;4996995;28;19964;-59
2023/02/12 07:10:41;;;;;;;;;;;;;;;4.90;100.00;100516.97;4991813;28;20055;-60
2023/02/12 07:13:06;;;;;;;;;;;;;;;4.93;100.00;100514.53;4995956;28;19978;-61
2023/02/12 07:15:32;;;;;;;;;;;;;;;4.96;100.00;100507.03;4997361;28;20258;-61
2023/02/12 07:17:57;;;;;;;;;;;;;;;4.95;100.00;100521.41;4996561;28;20378;-61
2023/02/12 07:20:23;;;;;;;;;;;;;;;5.01;100.00;100510.56;4997136;28;19936;-61
2023/02/12 07:22:48;;;;;;;;;;;;;;;5.12;100.00;100521.97;4996658;28;19941;-60
2023/02/12 07:25:13;;;;;;;;;;;;;;;5.14;100.00;100517.78;4994795;28;20533;-61
2023/02/12 07:27:39;;;;;;;;;;;;;;;5.18;100.00;100508.63;4995661;28;19952;-61
2023/02/12 07:30:06;;;;;;;;;;;;;;;5.14;100.00;100511.84;4995145;28;19968;-59
2023/02/12 07:32:32;;;;;;;;;;;;;;;5.17;100.00;100517.03;4995168;28;19930;-58
2023/02/12 07:34:58;;;;;;;;;;;;;;;5.21;100.00;100508.69;4996805;28;19928;-59
2023/02/12 07:37:24;;;;;;;;;;;;;;;5.24;100.00;100512.19;4999452;28;19936;-59
2023/02/12 07:39:49;;;;;;;;;;;;;;;5.30;100.00;100503.91;4998630;28;19972;-59
2023/02/12 07:42:15;;;;;;;;;;;;;;;5.32;100.00;100509.91;4998937;28;19956;-58
2023/02/12 07:44:47;;;;;;;;;;;;;;;5.36;100.00;100517.69;5013241;28;20376;-58
2023/02/12 07:47:14;;;;;;;;;;;;;;;5.40;100.00;100519.50;4997137;28;20348;-59
2023/02/12 07:49:39;;;;;;;;;;;;;;;5.52;100.00;100521.56;4999275;28;20368;-59
2023/02/12 07:52:05;;;;;;;;;;;;;;;5.53;100.00;100520.75;4994986;28;19929;-59
2023/02/12 07:54:30;;;;;;;;;;;;;;;5.58;100.00;100521.78;4994810;28;19975;-60
2023/02/12 07:56:57;;;;;;;;;;;;;;;5.64;100.00;100531.28;4996001;28;20131;-60
2023/02/12 07:59:22;;;;;;;;;;;;;;;5.60;100.00;100534.56;4999853;28;19936;-58
2023/02/12 08:01:48;;;;;;;;;;;;;;;5.58;100.00;100539.56;5000605;28;19933;-59
2023/02/12 08:04:16;;;;;;;;;;;;;;;5.49;100.00;100537.59;4998779;28;19929;-58
2023/02/12 08:06:43;;;;;;;;;;;;;;;5.56;100.00;100538.66;4997566;28;20558;-59
2023/02/12 08:09:10;;;;;;;;;;;;;;;5.65;100.00;100538.06;5000343;28;19932;-58
2023/02/12 08:11:36;;;;;;;;;;;;;;;5.60;100.00;100542.19;5000141;28;20488;-57
2023/02/12 08:14:02;;;;;;;;;;;;;;;5.55;100.00;100534.41;4999807;28;19931;-58
2023/02/12 08:16:28;;;;;;;;;;;;;;;5.53;100.00;100539.44;5003269;28;20223;-58
2023/02/12 08:18:54;;;;;;;;;;;;;;;5.60;100.00;100554.91;4999470;28;19949;-59
2023/02/12 08:21:21;;;;;;;;;;;;;;;5.64;100.00;100538.91;4999123;28;20319;-58
2023/02/12 08:23:49;;;;;;;;;;;;;;;5.65;100.00;100531.31;4999861;28;19976;-58
2023/02/12 08:26:16;;;;;;;;;;;;;;;5.72;100.00;100530.69;4999922;28;19949;-58
2023/02/12 08:28:50;;;;;;;;;;;;;;;5.72;100.00;100537.47;4999694;28;19921;-57
2023/02/12 08:31:21;;;;;;;;;;;;;;;5.83;100.00;100539.50;4999711;28;19925;-60
2023/02/12 08:33:47;;;;;;;;;;;;;;;5.90;100.00;100525.31;4997223;28;20050;-59
2023/02/12 08:36:14;;;;;;;;;;;;;;;5.92;100.00;100536.41;4997246;28;19988;-59
2023/02/12 08:38:40;;;;;;;;;;;;;;;5.85;100.00;100542.13;5000500;28;20052;-59
2023/02/12 08:41:09;;;;;;;;;;;;;;;5.84;100.00;100527.66;4997239;28;20031;-59
2023/02/12 08:43:35;;;;;;;;;;;;;;;5.80;100.00;100538.56;4996140;28;19926;-59
2023/02/12 08:46:06;;;;;;;;;;;;;;;5.80;100.00;100549.63;4997927;28;20305;-57
2023/02/12 08:48:31;;;;;;;;;;;;;;;5.77;100.00;100541.03;4998501;28;20016;-59
2023/02/12 08:51:23;;;;;;;;;;;;;;;5.71;100.00;100553.53;4997998;28;19971;-58
2023/02/12 08:53:51;;;;;;;;;;;;;;;5.55;100.00;100549.66;4992839;28;20052;-58
2023/02/12 08:56:17;;;;;;;;;;;;;;;5.67;100.00;100546.63;4999634;28;20369;-58
2023/02/12 08:58:45;;;;;;;;;;;;;;;5.86;100.00;100556.56;4997355;28;19925;-61
2023/02/12 09:01:12;;;;;;;;;;;;;;;6.02;100.00;100566.44;4997397;28;19960;-60
2023/02/12 09:03:38;;;;;;;;;;;;;;;6.19;100.00;100564.41;4997720;28;20599;-60
2023/02/12 09:06:04;;;;;;;;;;;;;;;6.24;100.00;100573.88;4997692;28;20409;-58
2023/02/12 09:08:29;;;;;;;;;;;;;;;6.28;100.00;100573.16;4998399;28;20288;-60
2023/02/12 09:10:55;;;;;;;;;;;;;;;6.25;100.00;100579.84;4995445;28;19929;-60
2023/02/12 09:13:20;;;;;;;;;;;;;;;6.18;100.00;100588.13;4995070;28;20278;-60
2023/02/12 09:15:46;;;;;;;;;;;;;;;6.20;100.00;100582.25;4996875;28;19937;-60
2023/02/12 09:18:12;;;;;;;;;;;;;;;6.13;100.00;100590.53;4998022;28;20313;-60
2023/02/12 09:20:39;;;;;;;;;;;;;;;6.21;100.00;100609.44;5000130;28;20003;-59
2023/02/12 09:23:05;;;;;;;;;;;;;;;6.26;100.00;100596.84;4998368;28;19939;-60
2023/02/12 09:25:33;;;;;;;;;;;;;;;6.29;100.00;100602.91;4996378;28;19976;-60
2023/02/12 09:27:59;;;;;;;;;;;;;;;6.29;100.00;100608.00;4996331;28;19979;-60
2023/02/12 09:30:25;;;;;;;;;;;;;;;6.56;100.00;100612.16;4996821;28;19930;-60
2023/02/12 09:32:50;;;;;;;;;;;;;;;6.47;100.00;100604.25;4998882;28;19926;-60
2023/02/12 09:35:17;;;;;;;;;;;;;;;6.50;100.00;100617.06;4999879;28;19930;-60
2023/02/12 09:37:43;;;;;;;;;;;;;;;6.46;100.00;100610.16;4998220;28;19933;-62
2023/02/12 09:40:15;;;;;;;;;;;;;;;6.49;100.00;100602.63;4999386;28;19932;-59
2023/02/12 09:43:17;;;;;;;;;;;;;;;6.55;100.00;100612.97;4997366;28;20109;-61
2023/02/12 09:45:50;;;;;;;;;;;;;;;6.65;100.00;100604.78;4953550;28;20438;-59
2023/02/12 09:48:39;;;;;;;;;;;;;;;6.66;100.00;100629.47;4951610;28;19958;-60
2023/02/12 09:51:07;;;;;;;;;;;;;;;6.57;100.00;100627.50;4954309;28;19933;-60
2023/02/12 09:53:34;;;;;;;;;;;;;;;6.61;100.00;100618.28;4957584;28;19926;-59
2023/02/12 09:56:00;;;;;;;;;;;;;;;6.75;100.00;100622.06;4954301;28;19989;-60
2023/02/12 09:58:31;;;;;;;;;;;;;;;6.98;100.00;100633.78;4952798;28;19934;-60
2023/02/12 10:00:57;;;;;;;;;;;;;;;7.20;100.00;100625.00;4949702;28;19926;-59
2023/02/12 10:03:23;;;;;;;;;;;;;;;7.24;100.00;100620.03;4951586;28;20414;-60
2023/02/12 10:05:51;;;;;;;;;;;;;;;7.29;100.00;100622.72;4950698;28;20185;-60
2023/02/12 10:08:36;;;;;;;;;;;;;;;7.38;100.00;100622.09;4951783;28;19944;-60
2023/02/12 10:11:20;;;;;;;;;;;;;;;7.42;100.00;100639.19;4950429;28;19927;-62
2023/02/12 10:13:45;;;;;;;;;;;;;;;7.58;100.00;100631.09;4953474;28;19926;-62
2023/02/12 10:16:16;;;;;;;;;;;;;;;7.70;100.00;100623.75;4952803;28;19961;-65
2023/02/12 10:19:00;;;;;;;;;;;;;;;7.69;100.00;100637.31;4957761;28;20396;-61
2023/02/12 10:21:45;;;;;;;;;;;;;;;7.65;100.00;100636.38;4996617;28;19925;-60
2023/02/12 10:24:10;;;;;;;;;;;;;;;7.78;100.00;100624.78;4999120;28;19940;-61
2023/02/12 10:26:45;;;;;;;;;;;;;;;8.04;100.00;100631.38;4994880;28;20280;-59
2023/02/12 10:29:17;;;;;;;;;;;;;;;8.25;100.00;100631.88;4995714;28;20003;-65
2023/02/12 10:31:53;;;;;;;;;;;;;;;8.07;100.00;100636.56;4994579;28;19926;-62
2023/02/12 10:34:21;;;;;;;;;;;;;;;8.07;100.00;100616.13;4993991;28;19947;-63
2023/02/12 10:36:54;;;;;;;;;;;;;;;7.89;100.00;100620.81;5026928;28;19926;-62
2023/02/12 10:39:23;;;;;;;;;;;;;;;7.59;100.00;100614.97;4982750;28;19994;-62
2023/02/12 10:41:51;;;;;;;;;;;;;;;7.65;100.00;100620.19;4996632;28;19925;-65
2023/02/12 10:44:17;;;;;;;;;;;;;;;7.98;100.00;100621.00;4998175;28;20284;-62
2023/02/12 10:46:42;;;;;;;;;;;;;;;8.17;100.00;100620.63;4996894;28;19988;-62
2023/02/12 10:49:11;;;;;;;;;;;;;;;8.24;100.00;100619.03;4996614;28;20622;-61
2023/02/12 10:51:55;;;;;;;;;;;;;;;8.16;100.00;100626.53;4995572;28;20323;-61
2023/02/12 10:54:35;;;;;;;;;;;;;;;8.00;100.00;100611.72;4993272;28;19929;-60
2023/02/12 10:57:06;;;;;;;;;;;;;;;8.14;100.00;100617.13;4996453;28;20475;-60
2023/02/12 10:59:32;;;;;;;;;;;;;;;8.16;100.00;100621.44;4996979;28;19972;-62
2023/02/12 11:01:57;;;;;;;;;;;;;;;8.32;100.00;100625.22;4997717;28;20376;-64
2023/02/12 11:04:22;;;;;;;;;;;;;;;8.38;100.00;100615.16;4997002;28;19929;-59
2023/02/12 11:06:57;;;;;;;;;;;;;;;8.48;100.00;100619.63;4994038;28;20590;-60
2023/02/12 11:09:45;;;;;;;;;;;;;;;8.41;100.00;100612.66;4993766;28;20300;-59
2023/02/12 11:12:18;;;;;;;;;;;;;;;8.36;100.00;100627.00;4996022;28;19930;-60
2023/02/12 11:14:54;;;;;;;;;;;;;;;8.36;100.00;100618.50;4998537;28;19929;-59
2023/02/12 11:17:28;;;;;;;;;;;;;;;8.36;100.00;100613.41;4997122;28;19925;-60
2023/02/12 11:20:03;;;;;;;;;;;;;;;8.35;100.00;100616.78;4997065;28;19957;-60
2023/02/12 11:22:29;;;;;;;;;;;;;;;8.52;100.00;100611.19;4994157;28;19932;-60
2023/02/12 11:24:59;;;;;;;;;;;;;;;8.61;100.00;100607.97;4997142;28;19977;-60
2023/02/12 11:27:27;;;;;;;;;;;;;;;8.68;100.00;100618.34;4994979;28;19925;-60
2023/02/12 11:30:12;;;;;;;;;;;;;;;8.48;100.00;100613.66;4995143;28;19925;-59
2023/02/12 11:32:37;;;;;;;;;;;;;;;8.26;100.00;100617.41;4994616;28;19972;-60
2023/02/12 11:35:14;;;;;;;;;;;;;;;8.41;100.00;100615.19;5004511;28;19929;-59
2023/02/12 11:37:41;;;;;;;;;;;;;;;8.24;100.00;100617.34;4995311;28;19926;-59
2023/02/12 11:40:14;;;;;;;;;;;;;;;8.22;100.00;100623.28;4996096;28;19925;-61
2023/02/12 11:42:42;;;;;;;;;;;;;;;8.19;100.00;100618.94;4995014;28;19925;-61
2023/02/12 11:45:15;;;;;;;;;;;;;;;8.01;100.00;100617.69;4995302;28;20040;-60
2023/02/12 11:47:41;;;;;;;;;;;;;;;7.92;100.00;100620.88;4992905;28;19925;-59
2023/02/12 11:50:26;;;;;;;;;;;;;;;7.99;100.00;100629.53;5026584;28;20365;-61
2023/02/12 11:52:52;;;;;;;;;;;;;;;7.67;100.00;100626.22;4993274;28;19926;-61
2023/02/12 11:55:24;;;;;;;;;;;;;;;7.68;100.00;100625.41;4992326;28;20142;-61
2023/02/12 11:57:51;;;;;;;;;;;;;;;7.79;100.00;100618.88;5025219;28;20001;-61
2023/02/12 12:00:23;;;;;;;;;;;;;;;7.90;100.00;100626.75;4996175;28;20004;-60
2023/02/12 12:02:54;;;;;;;;;;;;;;;7.64;100.00;100628.69;4996008;28;20296;-61
2023/02/12 12:05:21;;;;;;;;;;;;;;;7.71;100.00;100626.34;4997164;28;19926;-62
2023/02/12 12:07:51;;;;;;;;;;;;;;;7.75;100.00;100629.81;4996126;28;19926;-61
2023/02/12 12:10:20;;;;;;;;;;;;;;;7.56;100.00;100625.06;4995921;28;19933;-61
2023/02/12 12:12:53;;;;;;;;;;;;;;;7.42;100.00;100622.19;4996713;28;19925;-61
2023/02/12 12:21:38;;;;;;;;;;;;;;;7.48;100.00;100619.78;5029271;28;19925;-61
2023/02/12 12:24:15;;;;;;;;;;;;;;;7.54;100.00;100624.19;4982020;28;20572;-60
2023/02/12 12:26:44;;;;;;;;;;;;;;;7.61;100.00;100613.31;4981948;28;19996;-61
2023/02/12 12:29:18;;;;;;;;;;;;;;;7.62;100.00;100604.81;4966490;28;20456;-59
2023/02/12 12:31:49;;;;;;;;;;;;;;;7.65;100.00;100610.00;4980090;28;20396;-61
2023/02/12 12:34:17;;;;;;;;;;;;;;;7.72;100.00;100609.34;4983348;28;19926;-61
2023/02/12 12:37:02;;;;;;;;;;;;;;;7.70;100.00;100604.19;4979711;28;19926;-63
2023/02/12 12:39:46;;;;;;;;;;;;;;;7.71;100.00;100594.84;4978513;28;19933;-60
2023/02/12 12:42:11;;;;;;;;;;;;;;;7.61;100.00;100603.09;4982737;28;20471;-59
2023/02/12 12:44:37;;;;;;;;;;;;;;;7.66;100.00;100604.94;4982760;28;19973;-60
2023/02/12 12:47:20;;;;;;;;;;;;;;;7.62;100.00;100599.72;4973088;28;20399;-60
2023/02/12 12:49:52;;;;;;;;;;;;;;;7.73;100.00;100600.81;4981530;28;19926;-60
2023/02/12 12:52:23;;;;;;;;;;;;;;;7.85;100.00;100603.66;4979587;28;20400;-59
2023/02/12 12:55:19;;;;;;;;;;;;;;;7.81;100.00;100599.31;4990444;28;19930;-62